sensor_id;sensor_type;location;lat;lon;timestamp;temperature;humidity
12049;DHT22;6085;49.452;8.502;2023-04-07T00:00:57;6.50;99.90
12049;DHT22;6085;49.452;8.502;2023-04-07T00:05:01;6.60;99.90
12049;DHT22;6085;49.452;8.502;2023-04-07T00:09:03;6.60;99.90
12049;DHT22;6085;49.452;8.502;2023-04-07T00:13:05;6.60;99.90
12049;DHT22;6085;49.452;8.502;2023-04-07T00:17:07;6.60;99.90
12049;DHT22;6085;49.452;8.502;2023-04-07T00:21:11;6.60;99.90
12049;DHT22;6085;49.452;8.502;2023-04-07T00:25:13;6.60;99.90
12049;DHT22;6085;49.452;8.502;2023-04-07T00:29:14;6.50;99.90
12049;DHT22;6085;49.452;8.502;2023-04-07T00:33:16;6.50;99.90
12049;DHT22;6085;49.452;8.502;2023-04-07T00:37:20;6.50;99.90
12049;DHT22;6085;49.452;8.502;2023-04-07T00:41:21;6.50;99.90
12049;DHT22;6085;49.452;8.502;2023-04-07T00:45:23;6.50;99.90
12049;DHT22;6085;49.452;8.502;2023-04-07T00:49:26;6.60;99.90
12049;DHT22;6085;49.452;8.502;2023-04-07T00:53:30;6.50;99.90
12049;DHT22;6085;49.452;8.502;2023-04-07T00:57:32;6.50;99.90
12049;DHT22;6085;49.452;8.502;2023-04-07T01:01:39;6.60;99.90
12049;DHT22;6085;49.452;8.502;2023-04-07T01:05:52;6.60;99.90
12049;DHT22;6085;49.452;8.502;2023-04-07T01:10:02;6.60;99.90
12049;DHT22;6085;49.452;8.502;2023-04-07T01:14:05;6.60;99.90
12049;DHT22;6085;49.452;8.502;2023-04-07T01:18:13;6.70;99.90
12049;DHT22;6085;49.452;8.502;2023-04-07T01:22:19;6.70;99.90
12049;DHT22;6085;49.452;8.502;2023-04-07T01:26:27;6.70;99.90
12049;DHT22;6085;49.452;8.502;2023-04-07T01:30:33;6.70;99.90
12049;DHT22;6085;49.452;8.502;2023-04-07T01:34:37;6.80;99.90
12049;DHT22;6085;49.452;8.502;2023-04-07T01:38:40;6.80;99.90
12049;DHT22;6085;49.452;8.502;2023-04-07T01:42:43;6.80;99.90
12049;DHT22;6085;49.452;8.502;2023-04-07T01:46:48;6.80;99.90
12049;DHT22;6085;49.452;8.502;2023-04-07T01:50:51;6.80;99.90
12049;DHT22;6085;49.452;8.502;2023-04-07T01:54:53;6.90;99.90
12049;DHT22;6085;49.452;8.502;2023-04-07T01:58:57;6.90;99.90
12049;DHT22;6085;49.452;8.502;2023-04-07T02:03:06;6.90;99.90
12049;DHT22;6085;49.452;8.502;2023-04-07T02:07:14;6.90;99.90
12049;DHT22;6085;49.452;8.502;2023-04-07T02:11:20;6.90;99.90
12049;DHT22;6085;49.452;8.502;2023-04-07T02:15:23;6.90;99.90
12049;DHT22;6085;49.452;8.502;2023-04-07T02:19:28;6.90;99.90
12049;DHT22;6085;49.452;8.502;2023-04-07T02:23:34;6.80;99.90
12049;DHT22;6085;49.452;8.502;2023-04-07T02:27:36;6.80;99.90
12049;DHT22;6085;49.452;8.502;2023-04-07T02:31:38;6.80;99.90
12049;DHT22;6085;49.452;8.502;2023-04-07T02:35:41;6.80;99.90
12049;DHT22;6085;49.452;8.502;2023-04-07T02:39:43;6.80;99.90
12049;DHT22;6085;49.452;8.502;2023-04-07T02:43:45;6.80;99.90
12049;DHT22;6085;49.452;8.502;2023-04-07T02:47:47;6.80;99.90
12049;DHT22;6085;49.452;8.502;2023-04-07T02:51:53;6.80;99.90
12049;DHT22;6085;49.452;8.502;2023-04-07T02:55:55;6.80;99.90
12049;DHT22;6085;49.452;8.502;2023-04-07T02:59:57;6.70;99.90
12049;DHT22;6085;49.452;8.502;2023-04-07T03:03:59;6.70;99.90
12049;DHT22;6085;49.452;8.502;2023-04-07T03:08:02;6.70;99.90
12049;DHT22;6085;49.452;8.502;2023-04-07T03:12:05;6.70;99.90
12049;DHT22;6085;49.452;8.502;2023-04-07T03:16:09;6.70;99.90
12049;DHT22;6085;49.452;8.502;2023-04-07T03:20:11;6.60;99.90
12049;DHT22;6085;49.452;8.502;2023-04-07T03:24:14;6.50;99.90
12049;DHT22;6085;49.452;8.502;2023-04-07T03:28:16;6.40;99.90
12049;DHT22;6085;49.452;8.502;2023-04-07T03:32:18;6.30;99.90
12049;DHT22;6085;49.452;8.502;2023-04-07T03:36:20;6.20;99.90
12049;DHT22;6085;49.452;8.502;2023-04-07T03:40:23;6.20;99.90
12049;DHT22;6085;49.452;8.502;2023-04-07T03:44:25;6.20;99.90
12049;DHT22;6085;49.452;8.502;2023-04-07T03:48:27;6.30;99.90
12049;DHT22;6085;49.452;8.502;2023-04-07T03:52:29;6.40;99.90
12049;DHT22;6085;49.452;8.502;2023-04-07T03:56:32;6.40;99.90
12049;DHT22;6085;49.452;8.502;2023-04-07T04:00:35;6.40;99.90
12049;DHT22;6085;49.452;8.502;2023-04-07T04:04:37;6.50;99.90
12049;DHT22;6085;49.452;8.502;2023-04-07T04:08:39;6.50;99.90
12049;DHT22;6085;49.452;8.502;2023-04-07T04:12:45;6.50;99.90
12049;DHT22;6085;49.452;8.502;2023-04-07T04:16:47;6.50;99.90
12049;DHT22;6085;49.452;8.502;2023-04-07T04:20:49;6.40;99.90
12049;DHT22;6085;49.452;8.502;2023-04-07T04:24:51;6.40;99.90
12049;DHT22;6085;49.452;8.502;2023-04-07T04:28:54;6.30;99.90
12049;DHT22;6085;49.452;8.502;2023-04-07T04:32:56;6.40;99.90
12049;DHT22;6085;49.452;8.502;2023-04-07T04:36:58;6.40;99.90
12049;DHT22;6085;49.452;8.502;2023-04-07T04:41:00;6.40;99.90
12049;DHT22;6085;49.452;8.502;2023-04-07T04:45:04;6.40;99.90
12049;DHT22;6085;49.452;8.502;2023-04-07T04:49:06;6.50;99.90
12049;DHT22;6085;49.452;8.502;2023-04-07T04:53:08;6.60;99.90
12049;DHT22;6085;49.452;8.502;2023-04-07T04:57:10;6.50;99.90
12049;DHT22;6085;49.452;8.502;2023-04-07T05:01:14;6.60;99.90
12049;DHT22;6085;49.452;8.502;2023-04-07T05:05:16;6.60;99.90
12049;DHT22;6085;49.452;8.502;2023-04-07T05:09:17;6.60;99.90
12049;DHT22;6085;49.452;8.502;2023-04-07T05:13:19;6.70;99.90
12049;DHT22;6085;49.452;8.502;2023-04-07T05:17:23;6.80;99.90
12049;DHT22;6085;49.452;8.502;2023-04-07T05:21:25;6.90;99.90
12049;DHT22;6085;49.452;8.502;2023-04-07T05:25:27;6.90;99.90
12049;DHT22;6085;49.452;8.502;2023-04-07T05:29:29;7.00;99.90
12049;DHT22;6085;49.452;8.502;2023-04-07T05:33:32;7.00;99.90
12049;DHT22;6085;49.452;8.502;2023-04-07T05:37:34;7.00;99.90
12049;DHT22;6085;49.452;8.502;2023-04-07T05:41:36;7.00;99.90
12049;DHT22;6085;49.452;8.502;2023-04-07T05:45:38;7.00;99.90
12049;DHT22;6085;49.452;8.502;2023-04-07T05:49:42;7.10;99.90
12049;DHT22;6085;49.452;8.502;2023-04-07T05:53:46;7.10;99.90
12049;DHT22;6085;49.452;8.502;2023-04-07T05:57:48;7.20;99.90
12049;DHT22;6085;49.452;8.502;2023-04-07T06:01:50;7.30;99.90
12049;DHT22;6085;49.452;8.502;2023-04-07T06:05:53;7.50;99.90
12049;DHT22;6085;49.452;8.502;2023-04-07T06:09:55;7.60;99.90
12049;DHT22;6085;49.452;8.502;2023-04-07T06:13:57;7.80;99.90
12049;DHT22;6085;49.452;8.502;2023-04-07T06:17:59;8.00;99.90
12049;DHT22;6085;49.452;8.502;2023-04-07T06:22:03;8.20;99.90
12049;DHT22;6085;49.452;8.502;2023-04-07T06:26:05;8.30;99.90
12049;DHT22;6085;49.452;8.502;2023-04-07T06:30:08;8.50;99.90
12049;DHT22;6085;49.452;8.502;2023-04-07T06:34:10;8.70;99.90
12049;DHT22;6085;49.452;8.502;2023-04-07T06:38:13;8.90;99.90
12049;DHT22;6085;49.452;8.502;2023-04-07T06:42:15;9.10;99.90
12049;DHT22;6085;49.452;8.502;2023-04-07T06:46:17;9.40;99.90
12049;DHT22;6085;49.452;8.502;2023-04-07T06:50:19;9.60;99.90
12049;DHT22;6085;49.452;8.502;2023-04-07T06:54:23;9.80;99.90
12049;DHT22;6085;49.452;8.502;2023-04-07T06:58:25;9.90;99.90
12049;DHT22;6085;49.452;8.502;2023-04-07T07:02:27;10.00;99.90
12049;DHT22;6085;49.452;8.502;2023-04-07T07:06:28;10.30;99.90
12049;DHT22;6085;49.452;8.502;2023-04-07T07:10:32;10.60;99.90
12049;DHT22;6085;49.452;8.502;2023-04-07T07:14:34;11.10;99.90
12049;DHT22;6085;49.452;8.502;2023-04-07T07:18:36;11.50;99.90
12049;DHT22;6085;49.452;8.502;2023-04-07T07:22:38;12.00;99.90
12049;DHT22;6085;49.452;8.502;2023-04-07T07:26:42;12.50;99.90
12049;DHT22;6085;49.452;8.502;2023-04-07T07:30:45;13.10;99.90
12049;DHT22;6085;49.452;8.502;2023-04-07T07:34:47;13.60;99.90
12049;DHT22;6085;49.452;8.502;2023-04-07T07:38:49;14.00;99.90
12049;DHT22;6085;49.452;8.502;2023-04-07T07:42:53;14.40;99.90
12049;DHT22;6085;49.452;8.502;2023-04-07T07:46:54;15.00;99.90
12049;DHT22;6085;49.452;8.502;2023-04-07T07:50:56;15.80;99.90
12049;DHT22;6085;49.452;8.502;2023-04-07T07:54:58;16.00;99.90
12049;DHT22;6085;49.452;8.502;2023-04-07T07:59:06;17.00;99.90
12049;DHT22;6085;49.452;8.502;2023-04-07T08:03:10;19.50;99.90
12049;DHT22;6085;49.452;8.502;2023-04-07T08:07:12;21.50;99.90
12049;DHT22;6085;49.452;8.502;2023-04-07T08:11:14;21.70;99.90
12049;DHT22;6085;49.452;8.502;2023-04-07T08:15:18;22.00;99.90
12049;DHT22;6085;49.452;8.502;2023-04-07T08:19:20;21.40;99.90
12049;DHT22;6085;49.452;8.502;2023-04-07T08:23:22;20.50;99.90
12049;DHT22;6085;49.452;8.502;2023-04-07T08:27:24;20.70;99.90
12049;DHT22;6085;49.452;8.502;2023-04-07T08:31:27;21.20;99.90
12049;DHT22;6085;49.452;8.502;2023-04-07T08:35:29;21.60;99.70
12049;DHT22;6085;49.452;8.502;2023-04-07T08:39:31;21.30;99.70
12049;DHT22;6085;49.452;8.502;2023-04-07T08:43:34;20.40;99.90
12049;DHT22;6085;49.452;8.502;2023-04-07T08:47:40;19.20;99.90
12049;DHT22;6085;49.452;8.502;2023-04-07T08:51:44;18.70;99.90
12049;DHT22;6085;49.452;8.502;2023-04-07T08:55:47;18.90;99.90
12049;DHT22;6085;49.452;8.502;2023-04-07T08:59:49;20.10;99.90
12049;DHT22;6085;49.452;8.502;2023-04-07T09:03:52;20.20;99.90
12049;DHT22;6085;49.452;8.502;2023-04-07T09:07:54;18.90;99.90
12049;DHT22;6085;49.452;8.502;2023-04-07T09:11:56;18.40;99.90
12049;DHT22;6085;49.452;8.502;2023-04-07T09:16:00;17.80;99.90
12049;DHT22;6085;49.452;8.502;2023-04-07T09:20:05;17.30;99.90
12049;DHT22;6085;49.452;8.502;2023-04-07T09:24:19;17.20;99.90
12049;DHT22;6085;49.452;8.502;2023-04-07T09:28:21;18.00;99.90
12049;DHT22;6085;49.452;8.502;2023-04-07T09:32:34;18.80;99.90
12049;DHT22;6085;49.452;8.502;2023-04-07T09:36:41;18.00;99.90
12049;DHT22;6085;49.452;8.502;2023-04-07T09:40:43;18.10;99.90
12049;DHT22;6085;49.452;8.502;2023-04-07T09:44:45;18.80;99.90
12049;DHT22;6085;49.452;8.502;2023-04-07T09:48:47;18.80;99.90
12049;DHT22;6085;49.452;8.502;2023-04-07T09:53:03;18.70;99.90
12049;DHT22;6085;49.452;8.502;2023-04-07T09:57:06;18.20;99.90
12049;DHT22;6085;49.452;8.502;2023-04-07T10:01:09;17.80;99.90
12049;DHT22;6085;49.452;8.502;2023-04-07T10:05:12;18.00;99.90
12049;DHT22;6085;49.452;8.502;2023-04-07T10:09:15;19.50;99.90
12049;DHT22;6085;49.452;8.502;2023-04-07T10:13:18;19.80;99.90
12049;DHT22;6085;49.452;8.502;2023-04-07T10:17:21;19.20;99.90
12049;DHT22;6085;49.452;8.502;2023-04-07T10:21:24;17.70;99.90
12049;DHT22;6085;49.452;8.502;2023-04-07T10:25:29;16.60;99.90
12049;DHT22;6085;49.452;8.502;2023-04-07T10:29:34;16.10;99.90
12049;DHT22;6085;49.452;8.502;2023-04-07T10:33:44;16.80;99.90
12049;DHT22;6085;49.452;8.502;2023-04-07T10:38:09;18.50;99.90
12049;DHT22;6085;49.452;8.502;2023-04-07T10:47:05;20.40;99.90
12049;DHT22;6085;49.452;8.502;2023-04-07T10:51:12;21.80;99.90
12049;DHT22;6085;49.452;8.502;2023-04-07T10:55:32;22.40;99.50
12049;DHT22;6085;49.452;8.502;2023-04-07T10:59:34;20.80;99.90
12049;DHT22;6085;49.452;8.502;2023-04-07T11:03:40;19.70;99.90
12049;DHT22;6085;49.452;8.502;2023-04-07T11:07:50;18.40;99.90
12049;DHT22;6085;49.452;8.502;2023-04-07T11:11:54;17.70;99.90
12049;DHT22;6085;49.452;8.502;2023-04-07T11:15:57;17.90;99.90
12049;DHT22;6085;49.452;8.502;2023-04-07T11:20:00;19.00;99.90
12049;DHT22;6085;49.452;8.502;2023-04-07T11:24:02;18.60;99.90
12049;DHT22;6085;49.452;8.502;2023-04-07T11:28:05;20.40;99.90
12049;DHT22;6085;49.452;8.502;2023-04-07T11:32:07;20.60;99.90
12049;DHT22;6085;49.452;8.502;2023-04-07T11:36:10;19.70;99.90
12049;DHT22;6085;49.452;8.502;2023-04-07T11:40:12;18.80;99.90
12049;DHT22;6085;49.452;8.502;2023-04-07T11:44:31;18.10;99.90
12049;DHT22;6085;49.452;8.502;2023-04-07T11:48:34;17.70;99.90
12049;DHT22;6085;49.452;8.502;2023-04-07T11:52:41;17.50;99.90
12049;DHT22;6085;49.452;8.502;2023-04-07T11:56:45;17.10;99.90
12049;DHT22;6085;49.452;8.502;2023-04-07T12:00:57;16.50;99.90
12049;DHT22;6085;49.452;8.502;2023-04-07T12:05:03;15.70;99.90
12049;DHT22;6085;49.452;8.502;2023-04-07T12:09:07;15.10;99.90
12049;DHT22;6085;49.452;8.502;2023-04-07T12:13:11;14.90;99.90
12049;DHT22;6085;49.452;8.502;2023-04-07T12:17:19;14.90;99.90
12049;DHT22;6085;49.452;8.502;2023-04-07T12:21:22;14.80;99.90
12049;DHT22;6085;49.452;8.502;2023-04-07T12:25:27;14.70;99.90
12049;DHT22;6085;49.452;8.502;2023-04-07T12:29:29;15.00;99.90
12049;DHT22;6085;49.452;8.502;2023-04-07T12:33:31;15.20;99.90
12049;DHT22;6085;49.452;8.502;2023-04-07T12:37:33;14.90;99.90
12049;DHT22;6085;49.452;8.502;2023-04-07T12:41:36;14.80;99.90
12049;DHT22;6085;49.452;8.502;2023-04-07T12:45:39;14.60;99.90
12049;DHT22;6085;49.452;8.502;2023-04-07T12:49:41;14.90;99.90
12049;DHT22;6085;49.452;8.502;2023-04-07T12:53:43;15.30;99.90
12049;DHT22;6085;49.452;8.502;2023-04-07T12:57:46;15.60;99.90
12049;DHT22;6085;49.452;8.502;2023-04-07T13:01:48;16.70;99.90
12049;DHT22;6085;49.452;8.502;2023-04-07T13:05:51;17.80;99.90
12049;DHT22;6085;49.452;8.502;2023-04-07T13:09:54;18.30;99.90
12049;DHT22;6085;49.452;8.502;2023-04-07T13:13:58;17.70;99.90
12049;DHT22;6085;49.452;8.502;2023-04-07T13:18:00;17.00;99.90
12049;DHT22;6085;49.452;8.502;2023-04-07T13:22:02;16.30;99.90
12049;DHT22;6085;49.452;8.502;2023-04-07T13:26:05;15.50;99.90
12049;DHT22;6085;49.452;8.502;2023-04-07T13:30:09;14.90;99.90
12049;DHT22;6085;49.452;8.502;2023-04-07T13:34:11;14.60;99.90
12049;DHT22;6085;49.452;8.502;2023-04-07T13:38:13;14.40;99.90
12049;DHT22;6085;49.452;8.502;2023-04-07T13:42:15;14.30;99.90
12049;DHT22;6085;49.452;8.502;2023-04-07T13:46:20;14.30;99.90
12049;DHT22;6085;49.452;8.502;2023-04-07T13:50:22;14.10;99.90
12049;DHT22;6085;49.452;8.502;2023-04-07T13:54:24;14.50;99.90
12049;DHT22;6085;49.452;8.502;2023-04-07T13:58:26;14.80;99.90
12049;DHT22;6085;49.452;8.502;2023-04-07T14:02:30;14.70;99.90
12049;DHT22;6085;49.452;8.502;2023-04-07T14:06:32;14.30;99.90
12049;DHT22;6085;49.452;8.502;2023-04-07T14:10:36;14.30;99.90
12049;DHT22;6085;49.452;8.502;2023-04-07T14:14:39;14.60;99.90
12049;DHT22;6085;49.452;8.502;2023-04-07T14:18:43;14.90;99.90
12049;DHT22;6085;49.452;8.502;2023-04-07T14:22:46;15.50;99.90
12049;DHT22;6085;49.452;8.502;2023-04-07T14:26:48;15.70;99.90
12049;DHT22;6085;49.452;8.502;2023-04-07T14:30:50;15.40;99.90
12049;DHT22;6085;49.452;8.502;2023-04-07T14:34:53;15.00;99.90
12049;DHT22;6085;49.452;8.502;2023-04-07T14:38:56;14.60;99.90
12049;DHT22;6085;49.452;8.502;2023-04-07T14:42:58;14.10;99.90
12049;DHT22;6085;49.452;8.502;2023-04-07T14:47:00;13.70;99.90
12049;DHT22;6085;49.452;8.502;2023-04-07T14:51:09;13.40;99.90
12049;DHT22;6085;49.452;8.502;2023-04-07T14:55:12;13.20;99.90
12049;DHT22;6085;49.452;8.502;2023-04-07T14:59:14;13.30;99.90
12049;DHT22;6085;49.452;8.502;2023-04-07T15:03:16;13.20;99.90
12049;DHT22;6085;49.452;8.502;2023-04-07T15:07:19;13.10;99.90
12049;DHT22;6085;49.452;8.502;2023-04-07T15:11:21;12.90;99.90
12049;DHT22;6085;49.452;8.502;2023-04-07T15:15:23;12.90;99.90
12049;DHT22;6085;49.452;8.502;2023-04-07T15:19:25;12.90;99.90
12049;DHT22;6085;49.452;8.502;2023-04-07T15:23:28;12.90;99.90
12049;DHT22;6085;49.452;8.502;2023-04-07T15:27:30;13.10;99.90
12049;DHT22;6085;49.452;8.502;2023-04-07T15:31:32;13.10;99.90
12049;DHT22;6085;49.452;8.502;2023-04-07T15:35:34;13.20;99.90
12049;DHT22;6085;49.452;8.502;2023-04-07T15:39:37;13.30;99.90
12049;DHT22;6085;49.452;8.502;2023-04-07T15:43:39;13.40;99.90
12049;DHT22;6085;49.452;8.502;2023-04-07T15:47:41;13.40;99.90
12049;DHT22;6085;49.452;8.502;2023-04-07T15:51:43;13.40;99.90
12049;DHT22;6085;49.452;8.502;2023-04-07T15:55:46;13.20;99.90
12049;DHT22;6085;49.452;8.502;2023-04-07T15:59:48;13.30;99.90
12049;DHT22;6085;49.452;8.502;2023-04-07T16:03:51;13.10;99.90
12049;DHT22;6085;49.452;8.502;2023-04-07T16:07:53;12.90;99.90
12049;DHT22;6085;49.452;8.502;2023-04-07T16:11:57;12.80;99.90
12049;DHT22;6085;49.452;8.502;2023-04-07T16:15:59;12.60;99.90
12049;DHT22;6085;49.452;8.502;2023-04-07T16:20:01;12.50;99.90
12049;DHT22;6085;49.452;8.502;2023-04-07T16:24:04;12.40;99.90
12049;DHT22;6085;49.452;8.502;2023-04-07T16:28:07;12.30;99.90
12049;DHT22;6085;49.452;8.502;2023-04-07T16:32:10;12.20;99.90
12049;DHT22;6085;49.452;8.502;2023-04-07T16:36:11;12.10;99.90
12049;DHT22;6085;49.452;8.502;2023-04-07T16:40:13;11.90;99.90
12049;DHT22;6085;49.452;8.502;2023-04-07T16:44:17;11.70;99.90
12049;DHT22;6085;49.452;8.502;2023-04-07T16:48:21;11.50;99.90
12049;DHT22;6085;49.452;8.502;2023-04-07T16:52:23;11.30;99.90
12049;DHT22;6085;49.452;8.502;2023-04-07T16:56:26;11.20;99.90
12049;DHT22;6085;49.452;8.502;2023-04-07T17:00:30;11.30;99.90
12049;DHT22;6085;49.452;8.502;2023-04-07T17:04:32;11.30;99.90
12049;DHT22;6085;49.452;8.502;2023-04-07T17:08:35;11.50;99.90
12049;DHT22;6085;49.452;8.502;2023-04-07T17:12:37;11.50;99.90
12049;DHT22;6085;49.452;8.502;2023-04-07T17:16:40;11.40;99.90
12049;DHT22;6085;49.452;8.502;2023-04-07T17:20:42;11.40;99.90
12049;DHT22;6085;49.452;8.502;2023-04-07T17:24:44;11.30;99.90
12049;DHT22;6085;49.452;8.502;2023-04-07T17:28:46;11.20;99.90
12049;DHT22;6085;49.452;8.502;2023-04-07T17:32:49;11.10;99.90
12049;DHT22;6085;49.452;8.502;2023-04-07T17:36:52;11.00;99.90
12049;DHT22;6085;49.452;8.502;2023-04-07T17:40:56;10.90;99.90
12049;DHT22;6085;49.452;8.502;2023-04-07T17:44:59;10.80;99.90
12049;DHT22;6085;49.452;8.502;2023-04-07T17:49:02;10.80;99.90
12049;DHT22;6085;49.452;8.502;2023-04-07T17:53:04;10.70;99.90
12049;DHT22;6085;49.452;8.502;2023-04-07T17:57:07;10.70;99.90
12049;DHT22;6085;49.452;8.502;2023-04-07T18:01:09;10.60;99.90
12049;DHT22;6085;49.452;8.502;2023-04-07T18:05:12;10.60;99.90
12049;DHT22;6085;49.452;8.502;2023-04-07T18:09:14;10.60;99.90
12049;DHT22;6085;49.452;8.502;2023-04-07T18:13:16;10.50;99.90
12049;DHT22;6085;49.452;8.502;2023-04-07T18:17:18;10.50;99.90
12049;DHT22;6085;49.452;8.502;2023-04-07T18:21:21;10.40;99.90
12049;DHT22;6085;49.452;8.502;2023-04-07T18:25:23;10.30;99.90
12049;DHT22;6085;49.452;8.502;2023-04-07T18:29:25;10.30;99.90
12049;DHT22;6085;49.452;8.502;2023-04-07T18:33:28;10.30;99.90
12049;DHT22;6085;49.452;8.502;2023-04-07T18:37:33;10.30;99.90
12049;DHT22;6085;49.452;8.502;2023-04-07T18:41:36;10.20;99.90
12049;DHT22;6085;49.452;8.502;2023-04-07T18:45:38;10.20;99.90
12049;DHT22;6085;49.452;8.502;2023-04-07T18:49:39;10.20;99.90
12049;DHT22;6085;49.452;8.502;2023-04-07T18:53:43;10.10;99.90
12049;DHT22;6085;49.452;8.502;2023-04-07T18:57:45;10.10;99.90
12049;DHT22;6085;49.452;8.502;2023-04-07T19:01:47;10.10;99.90
12049;DHT22;6085;49.452;8.502;2023-04-07T19:05:49;10.10;99.90
12049;DHT22;6085;49.452;8.502;2023-04-07T19:09:52;10.00;99.90
12049;DHT22;6085;49.452;8.502;2023-04-07T19:13:54;10.00;99.90
12049;DHT22;6085;49.452;8.502;2023-04-07T19:17:56;9.90;99.90
12049;DHT22;6085;49.452;8.502;2023-04-07T19:21:58;9.90;99.90
12049;DHT22;6085;49.452;8.502;2023-04-07T19:26:01;9.80;99.90
12049;DHT22;6085;49.452;8.502;2023-04-07T19:30:05;9.70;99.90
12049;DHT22;6085;49.452;8.502;2023-04-07T19:34:07;9.60;99.90
12049;DHT22;6085;49.452;8.502;2023-04-07T19:38:09;9.50;99.90
12049;DHT22;6085;49.452;8.502;2023-04-07T19:42:13;9.40;99.90
12049;DHT22;6085;49.452;8.502;2023-04-07T19:46:15;9.20;99.90
12049;DHT22;6085;49.452;8.502;2023-04-07T19:50:17;9.20;99.90
12049;DHT22;6085;49.452;8.502;2023-04-07T19:54:19;9.20;99.90
12049;DHT22;6085;49.452;8.502;2023-04-07T19:58:23;9.20;99.90
12049;DHT22;6085;49.452;8.502;2023-04-07T20:02:25;9.40;99.90
12049;DHT22;6085;49.452;8.502;2023-04-07T20:06:27;9.40;99.90
12049;DHT22;6085;49.452;8.502;2023-04-07T20:10:29;9.40;99.90
12049;DHT22;6085;49.452;8.502;2023-04-07T20:14:33;9.30;99.90
12049;DHT22;6085;49.452;8.502;2023-04-07T20:18:35;9.30;99.90
12049;DHT22;6085;49.452;8.502;2023-04-07T20:22:37;9.20;99.90
12049;DHT22;6085;49.452;8.502;2023-04-07T20:26:39;9.20;99.90
12049;DHT22;6085;49.452;8.502;2023-04-07T20:30:42;9.10;99.90
12049;DHT22;6085;49.452;8.502;2023-04-07T20:34:44;8.90;99.90
12049;DHT22;6085;49.452;8.502;2023-04-07T20:38:47;8.80;99.90
12049;DHT22;6085;49.452;8.502;2023-04-07T20:42:49;8.70;99.90
12049;DHT22;6085;49.452;8.502;2023-04-07T20:46:52;8.60;99.90
12049;DHT22;6085;49.452;8.502;2023-04-07T20:50:55;8.40;99.90
12049;DHT22;6085;49.452;8.502;2023-04-07T20:54:57;8.30;99.90
12049;DHT22;6085;49.452;8.502;2023-04-07T20:58:59;8.30;99.90
12049;DHT22;6085;49.452;8.502;2023-04-07T21:03:02;8.30;99.90
12049;DHT22;6085;49.452;8.502;2023-04-07T21:07:04;8.30;99.90
12049;DHT22;6085;49.452;8.502;2023-04-07T21:11:06;8.40;99.90
12049;DHT22;6085;49.452;8.502;2023-04-07T21:15:08;8.40;99.90
12049;DHT22;6085;49.452;8.502;2023-04-07T21:19:12;8.40;99.90
12049;DHT22;6085;49.452;8.502;2023-04-07T21:23:14;8.50;99.90
12049;DHT22;6085;49.452;8.502;2023-04-07T21:27:16;8.40;99.90
12049;DHT22;6085;49.452;8.502;2023-04-07T21:31:23;8.30;99.90
12049;DHT22;6085;49.452;8.502;2023-04-07T21:35:27;8.10;99.90
12049;DHT22;6085;49.452;8.502;2023-04-07T21:39:31;8.00;99.90
12049;DHT22;6085;49.452;8.502;2023-04-07T21:43:33;7.90;99.90
12049;DHT22;6085;49.452;8.502;2023-04-07T21:47:35;7.70;99.90
12049;DHT22;6085;49.452;8.502;2023-04-07T21:51:39;7.40;99.90
12049;DHT22;6085;49.452;8.502;2023-04-07T21:55:41;7.30;99.90
12049;DHT22;6085;49.452;8.502;2023-04-07T21:59:43;7.20;99.90
12049;DHT22;6085;49.452;8.502;2023-04-07T22:03:45;7.10;99.90
12049;DHT22;6085;49.452;8.502;2023-04-07T22:07:51;7.10;99.90
12049;DHT22;6085;49.452;8.502;2023-04-07T22:11:53;7.00;99.90
12049;DHT22;6085;49.452;8.502;2023-04-07T22:15:55;6.90;99.90
12049;DHT22;6085;49.452;8.502;2023-04-07T22:19:59;6.90;99.90
12049;DHT22;6085;49.452;8.502;2023-04-07T22:24:02;6.70;99.90
12049;DHT22;6085;49.452;8.502;2023-04-07T22:28:04;6.60;99.90
12049;DHT22;6085;49.452;8.502;2023-04-07T22:32:06;6.70;99.90
12049;DHT22;6085;49.452;8.502;2023-04-07T22:36:08;6.70;99.90
12049;DHT22;6085;49.452;8.502;2023-04-07T22:40:12;6.80;99.90
12049;DHT22;6085;49.452;8.502;2023-04-07T22:44:14;6.70;99.90
12049;DHT22;6085;49.452;8.502;2023-04-07T22:48:16;6.60;99.90
12049;DHT22;6085;49.452;8.502;2023-04-07T22:52:18;6.60;99.90
12049;DHT22;6085;49.452;8.502;2023-04-07T22:56:22;6.80;99.90
12049;DHT22;6085;49.452;8.502;2023-04-07T23:00:25;6.90;99.90
12049;DHT22;6085;49.452;8.502;2023-04-07T23:04:27;6.90;99.90
12049;DHT22;6085;49.452;8.502;2023-04-07T23:08:30;7.00;99.90
12049;DHT22;6085;49.452;8.502;2023-04-07T23:12:33;7.10;99.90
12049;DHT22;6085;49.452;8.502;2023-04-07T23:16:35;7.10;99.90
12049;DHT22;6085;49.452;8.502;2023-04-07T23:20:37;7.10;99.90
12049;DHT22;6085;49.452;8.502;2023-04-07T23:24:39;7.10;99.90
12049;DHT22;6085;49.452;8.502;2023-04-07T23:28:43;7.10;99.90
12049;DHT22;6085;49.452;8.502;2023-04-07T23:32:45;7.20;99.90
12049;DHT22;6085;49.452;8.502;2023-04-07T23:36:47;7.20;99.90
12049;DHT22;6085;49.452;8.502;2023-04-07T23:40:49;7.40;99.90
12049;DHT22;6085;49.452;8.502;2023-04-07T23:44:53;7.50;99.90
12049;DHT22;6085;49.452;8.502;2023-04-07T23:48:55;7.60;99.90
12049;DHT22;6085;49.452;8.502;2023-04-07T23:52:57;7.70;99.90
12049;DHT22;6085;49.452;8.502;2023-04-07T23:56:59;7.90;99.90
